RYR5224 EGGP-EINN
Flight info
| Callsign | RYR5224 |
|---|---|
| Flight time | N/A |
| Altitude | 30000 |
| Route | WAL L10 PENIL M144 BAGSO DCT DIGAN DIGAN2E |
| Aircraft | B738/M-SDE2E3FGHIRWXY/LB1 |
Departure
| Time | N/A |
|---|---|
| Airport | Liverpool John Lennon Airport (EGGP) |
Arrival
| Time | 2026-05-04 00:04 |
|---|---|
| Airport | Shannon Airport (EINN) |
| Time | Latitude | Longitude | Altitude | Speed | Heading |
|---|---|---|---|---|---|
| 2026-05-03 23:39 | 53.32358 | -6.83320 | 29804 ft | 455 kts | 248° |
| 2026-05-03 23:39 | 53.31038 | -6.88114 | 29366 ft | 452 kts | 248° |
| 2026-05-03 23:40 | 53.29728 | -6.92859 | 28917 ft | 447 kts | 248° |
| 2026-05-03 23:40 | 53.28428 | -6.97557 | 28526 ft | 442 kts | 247° |
| 2026-05-03 23:40 | 53.27142 | -7.02195 | 28077 ft | 438 kts | 247° |
| 2026-05-03 23:40 | 53.25870 | -7.06777 | 27679 ft | 433 kts | 247° |
| 2026-05-03 23:41 | 53.24606 | -7.11319 | 27245 ft | 429 kts | 247° |
| 2026-05-03 23:41 | 53.23355 | -7.15810 | 26841 ft | 425 kts | 247° |
| 2026-05-03 23:41 | 53.22113 | -7.20258 | 26409 ft | 421 kts | 247° |
| 2026-05-03 23:41 | 53.20879 | -7.24670 | 26013 ft | 418 kts | 247° |
| 2026-05-03 23:42 | 53.19654 | -7.29042 | 25612 ft | 414 kts | 246° |
| 2026-05-03 23:42 | 53.18437 | -7.33377 | 25215 ft | 411 kts | 246° |
| 2026-05-03 23:42 | 53.17226 | -7.37682 | 24824 ft | 408 kts | 246° |
| 2026-05-03 23:42 | 53.16024 | -7.41946 | 24433 ft | 405 kts | 246° |
| 2026-05-03 23:43 | 53.14832 | -7.46169 | 24041 ft | 402 kts | 246° |
| 2026-05-03 23:43 | 53.13643 | -7.50373 | 23652 ft | 399 kts | 246° |
| 2026-05-03 23:43 | 53.12462 | -7.54541 | 23197 ft | 396 kts | 246° |
| 2026-05-03 23:43 | 53.11290 | -7.58668 | 22780 ft | 392 kts | 246° |
| 2026-05-03 23:44 | 53.10127 | -7.62758 | 22378 ft | 388 kts | 246° |
| 2026-05-03 23:44 | 53.08993 | -7.66739 | 21995 ft | 384 kts | 246° |
| 2026-05-03 23:44 | 53.07850 | -7.70746 | 21588 ft | 381 kts | 246° |
| 2026-05-03 23:44 | 53.06718 | -7.74705 | 21213 ft | 377 kts | 246° |
| 2026-05-03 23:45 | 53.05595 | -7.78629 | 20832 ft | 375 kts | 246° |
| 2026-05-03 23:45 | 53.04478 | -7.82523 | 20454 ft | 371 kts | 246° |
| 2026-05-03 23:45 | 53.03370 | -7.86381 | 20081 ft | 369 kts | 246° |
| 2026-05-03 23:45 | 53.02266 | -7.90221 | 19704 ft | 366 kts | 246° |
| 2026-05-03 23:46 | 53.01173 | -7.94014 | 19343 ft | 363 kts | 245° |
| 2026-05-03 23:46 | 53.00086 | -7.97782 | 18981 ft | 361 kts | 245° |
| 2026-05-03 23:46 | 52.99001 | -8.01534 | 18609 ft | 358 kts | 245° |
| 2026-05-03 23:46 | 52.97926 | -8.05250 | 18240 ft | 356 kts | 245° |
| 2026-05-03 23:47 | 52.96855 | -8.08947 | 17827 ft | 354 kts | 245° |
| 2026-05-03 23:47 | 52.95789 | -8.12619 | 17419 ft | 352 kts | 245° |
| 2026-05-03 23:47 | 52.94730 | -8.16260 | 17063 ft | 349 kts | 245° |
| 2026-05-03 23:47 | 52.93713 | -8.19894 | 16694 ft | 345 kts | 251° |
| 2026-05-03 23:48 | 52.93181 | -8.23732 | 16367 ft | 339 kts | 262° |
| 2026-05-03 23:48 | 52.92834 | -8.27547 | 15996 ft | 337 kts | 263° |
| 2026-05-03 23:48 | 52.92502 | -8.31378 | 15637 ft | 335 kts | 263° |
| 2026-05-03 23:48 | 52.92164 | -8.35195 | 15275 ft | 333 kts | 263° |
| 2026-05-03 23:49 | 52.91817 | -8.38982 | 14921 ft | 331 kts | 262° |
| 2026-05-03 23:49 | 52.91455 | -8.42740 | 14574 ft | 329 kts | 262° |
| 2026-05-03 23:49 | 52.91092 | -8.46477 | 14225 ft | 328 kts | 261° |
| 2026-05-03 23:49 | 52.90731 | -8.50188 | 13881 ft | 326 kts | 262° |
| 2026-05-03 23:50 | 52.90370 | -8.53896 | 13493 ft | 325 kts | 262° |
| 2026-05-03 23:50 | 52.90132 | -8.56333 | 13244 ft | 323 kts | 262° |
| 2026-05-03 23:50 | 52.89649 | -8.61244 | 12766 ft | 321 kts | 262° |
| 2026-05-03 23:50 | 52.89291 | -8.64864 | 12439 ft | 318 kts | 262° |
| 2026-05-03 23:51 | 52.88933 | -8.68457 | 12093 ft | 315 kts | 262° |
| 2026-05-03 23:51 | 52.88575 | -8.72034 | 11752 ft | 313 kts | 262° |
| 2026-05-03 23:51 | 52.88220 | -8.75580 | 11416 ft | 311 kts | 262° |
| 2026-05-03 23:51 | 52.87865 | -8.79105 | 11078 ft | 309 kts | 262° |
| 2026-05-03 23:52 | 52.87511 | -8.82601 | 10745 ft | 307 kts | 262° |
| 2026-05-03 23:52 | 52.87156 | -8.86085 | 10474 ft | 304 kts | 261° |
| 2026-05-03 23:52 | 52.86450 | -8.89307 | 10336 ft | 299 kts | 238° |
| 2026-05-03 23:52 | 52.85221 | -8.92015 | 10245 ft | 289 kts | 233° |
| 2026-05-03 23:53 | 52.83991 | -8.94600 | 10111 ft | 282 kts | 233° |
| 2026-05-03 23:53 | 52.82793 | -8.97109 | 9958 ft | 276 kts | 233° |
| 2026-05-03 23:53 | 52.81606 | -8.99603 | 9666 ft | 275 kts | 233° |
| 2026-05-03 23:53 | 52.80447 | -9.02048 | 9384 ft | 273 kts | 233° |
| 2026-05-03 23:54 | 52.79266 | -9.04544 | 9105 ft | 271 kts | 233° |
| 2026-05-03 23:54 | 52.78121 | -9.06967 | 8844 ft | 270 kts | 233° |
| 2026-05-03 23:54 | 52.76970 | -9.09401 | 8561 ft | 268 kts | 233° |
| 2026-05-03 23:54 | 52.75821 | -9.11831 | 8291 ft | 267 kts | 233° |
| 2026-05-03 23:55 | 52.74682 | -9.14240 | 8024 ft | 266 kts | 233° |
| 2026-05-03 23:55 | 52.73544 | -9.16646 | 7758 ft | 265 kts | 233° |
| 2026-05-03 23:55 | 52.72407 | -9.19048 | 7481 ft | 265 kts | 233° |
| 2026-05-03 23:55 | 52.71277 | -9.21433 | 7224 ft | 264 kts | 233° |
| 2026-05-03 23:56 | 52.70146 | -9.23816 | 6963 ft | 263 kts | 233° |
| 2026-05-03 23:56 | 52.69018 | -9.26192 | 6695 ft | 263 kts | 233° |
| 2026-05-03 23:56 | 52.67889 | -9.28565 | 6434 ft | 262 kts | 233° |
| 2026-05-03 23:56 | 52.66672 | -9.30794 | 6141 ft | 263 kts | 216° |
| 2026-05-03 23:57 | 52.65007 | -9.31820 | 5977 ft | 254 kts | 183° |
| 2026-05-03 23:57 | 52.63280 | -9.31400 | 5655 ft | 252 kts | 155° |
| 2026-05-03 23:57 | 52.61783 | -9.29944 | 5343 ft | 249 kts | 140° |
| 2026-05-03 23:57 | 52.60421 | -9.28181 | 5043 ft | 248 kts | 138° |
| 2026-05-03 23:58 | 52.59083 | -9.26417 | 4699 ft | 245 kts | 139° |
| 2026-05-03 23:58 | 52.57755 | -9.24677 | 4356 ft | 242 kts | 137° |
| 2026-05-03 23:58 | 52.56787 | -9.22519 | 4011 ft | 234 kts | 102° |
| 2026-05-03 23:58 | 52.56915 | -9.20009 | 3759 ft | 219 kts | 60° |
| 2026-05-03 23:59 | 52.57839 | -9.18109 | 3539 ft | 209 kts | 48° |
| 2026-05-03 23:59 | 52.58783 | -9.16314 | 3268 ft | 205 kts | 49° |
| 2026-05-03 23:59 | 52.59698 | -9.14581 | 3103 ft | 195 kts | 47° |
| 2026-05-03 23:59 | 52.60581 | -9.12933 | 2889 ft | 190 kts | 50° |
| 2026-05-04 00:00 | 52.61388 | -9.11278 | 2638 ft | 186 kts | 52° |
| 2026-05-04 00:00 | 52.62158 | -9.09642 | 2403 ft | 176 kts | 52° |
| 2026-05-04 00:00 | 52.62881 | -9.08095 | 2167 ft | 166 kts | 52° |
| 2026-05-04 00:00 | 52.63560 | -9.06644 | 1954 ft | 154 kts | 52° |
| 2026-05-04 00:01 | 52.64182 | -9.05318 | 1757 ft | 143 kts | 52° |
| 2026-05-04 00:01 | 52.64780 | -9.04042 | 1567 ft | 140 kts | 52° |
| 2026-05-04 00:01 | 52.65380 | -9.02762 | 1378 ft | 142 kts | 51° |
| 2026-05-04 00:01 | 52.65986 | -9.01469 | 1177 ft | 143 kts | 52° |
| 2026-05-04 00:02 | 52.66593 | -9.00176 | 973 ft | 143 kts | 51° |
| 2026-05-04 00:02 | 52.67203 | -8.98875 | 773 ft | 143 kts | 51° |
| 2026-05-04 00:02 | 52.67806 | -8.97571 | 562 ft | 143 kts | 51° |
| 2026-05-04 00:02 | 52.68409 | -8.96258 | 372 ft | 144 kts | 50° |
| 2026-05-04 00:03 | 52.69030 | -8.94968 | 202 ft | 145 kts | 50° |
| 2026-05-04 00:03 | 52.69644 | -8.93664 | 51 ft | 140 kts | 50° |
| 2026-05-04 00:03 | 52.70165 | -8.92562 | 32 ft | 94 kts | 52° |
| 2026-05-04 00:03 | 52.70470 | -8.91917 | 30 ft | 63 kts | 52° |
| 2026-05-04 00:04 | 52.70715 | -8.91401 | 26 ft | 41 kts | 52° |
| 2026-05-04 00:04 | 52.70737 | -8.91164 | 24 ft | 18 kts | 164° |
| 2026-05-04 00:04 | 52.70609 | -8.91124 | 22 ft | 19 kts | 170° |
| 2026-05-04 00:04 | 52.70481 | -8.91085 | 22 ft | 18 kts | 169° |
| 2026-05-04 00:05 | 52.70358 | -8.91046 | 22 ft | 18 kts | 169° |
| 2026-05-04 00:05 | 52.70239 | -8.91009 | 22 ft | 17 kts | 169° |
| 2026-05-04 00:05 | 52.70126 | -8.91045 | 23 ft | 16 kts | 198° |
| 2026-05-04 00:05 | 52.70013 | -8.91108 | 21 ft | 19 kts | 198° |
| 2026-05-04 00:06 | 52.69880 | -8.91181 | 21 ft | 20 kts | 198° |
| 2026-05-04 00:06 | 52.69750 | -8.91254 | 22 ft | 19 kts | 199° |
| 2026-05-04 00:06 | 52.69623 | -8.91325 | 23 ft | 19 kts | 199° |
| 2026-05-04 00:06 | 52.69501 | -8.91392 | 21 ft | 18 kts | 198° |
| 2026-05-04 00:07 | 52.69383 | -8.91457 | 22 ft | 18 kts | 198° |
| 2026-05-04 00:07 | 52.69274 | -8.91518 | 23 ft | 13 kts | 202° |
| 2026-05-04 00:07 | 52.69277 | -8.91630 | 21 ft | 12 kts | 311° |
| 2026-05-04 00:07 | 52.69333 | -8.91725 | 21 ft | 12 kts | 330° |
| 2026-05-04 00:08 | 52.69407 | -8.91769 | 21 ft | 11 kts | 330° |
| 2026-05-04 00:08 | 52.69445 | -8.91875 | 24 ft | 11 kts | 288° |
| 2026-05-04 00:08 | 52.69463 | -8.91994 | 21 ft | 10 kts | 284° |
| 2026-05-04 00:08 | 52.69450 | -8.92046 | 23 ft | 5 kts | 185° |
| 2026-05-04 00:09 | 52.69404 | -8.92050 | 21 ft | 6 kts | 185° |
| 2026-05-04 00:09 | 52.69379 | -8.92054 | 21 ft | 2 kts | 185° |
| 2026-05-04 00:09 | 52.69368 | -8.92055 | 21 ft | 0 kts | 184° |